createdAt,value
2022-10-14T00:02:02.247Z,60.25
2022-10-14T00:04:30.104Z,58.55
2022-10-14T00:06:56.893Z,62.47
2022-10-14T00:09:23.834Z,60.72
2022-10-14T00:11:50.697Z,56.67
2022-10-14T00:14:19.754Z,62.63
2022-10-14T00:16:48.922Z,62.13
2022-10-14T00:19:15.887Z,63.28
2022-10-14T00:21:44.697Z,66.70
2022-10-14T00:24:13.011Z,61.33
2022-10-14T00:26:40.881Z,63.50
2022-10-14T00:29:19.464Z,65.75
2022-10-14T00:31:46.938Z,68.57
2022-10-14T00:34:16.103Z,69.20
2022-10-14T00:36:43.670Z,66.93
2022-10-14T00:39:10.937Z,66.32
2022-10-14T00:41:38.180Z,75.40
2022-10-14T00:44:24.677Z,74.30
2022-10-14T00:46:52.008Z,67.03
2022-10-14T00:49:23.578Z,74.78
2022-10-14T00:51:58.622Z,75.63
2022-10-14T00:54:30.614Z,86.22
2022-10-14T00:56:57.257Z,84.38
2022-10-14T00:59:24.216Z,86.53
2022-10-14T01:01:50.973Z,87.82
2022-10-14T01:04:17.536Z,89.40
2022-10-14T01:07:03.976Z,80.15
2022-10-14T01:09:41.043Z,78.47
2022-10-14T01:12:40.042Z,88.35
2022-10-14T01:15:12.054Z,84.03
2022-10-14T01:17:57.201Z,75.28
2022-10-14T01:20:36.765Z,74.32
2022-10-14T01:23:06.036Z,74.60
2022-10-14T01:25:41.393Z,81.45
2022-10-14T01:28:08.564Z,74.22
2022-10-14T01:30:42.040Z,74.20
2022-10-14T01:33:22.450Z,70.45
2022-10-14T01:36:16.831Z,73.95
2022-10-14T01:39:07.892Z,65.13
2022-10-14T01:41:41.667Z,69.35
2022-10-14T01:44:11.656Z,62.40
2022-10-14T01:46:40.931Z,62.25
2022-10-14T01:49:15.785Z,73.75
2022-10-14T01:51:53.310Z,70.78
2022-10-14T01:54:25.126Z,70.25
2022-10-14T01:56:55.746Z,64.53
2022-10-14T01:59:23.615Z,64.57
2022-10-14T02:01:50.235Z,77.60
2022-10-14T02:04:19.375Z,71.28
2022-10-14T02:06:52.569Z,71.07
2022-10-14T02:09:31.569Z,75.50
2022-10-14T02:12:16.932Z,70.45
2022-10-14T02:15:01.759Z,80.35
2022-10-14T02:17:42.536Z,70.70
2022-10-14T02:20:22.966Z,78.22
2022-10-14T02:22:58.112Z,79.75
2022-10-14T02:25:32.603Z,73.40
2022-10-14T02:28:02.493Z,73.55
2022-10-14T02:30:32.844Z,86.32
2022-10-14T02:33:01.419Z,76.05
2022-10-14T02:35:30.728Z,79.15
2022-10-14T02:37:59.006Z,76.22
2022-10-14T02:40:35.502Z,78.70
2022-10-14T02:43:02.141Z,78.18
2022-10-14T02:45:29.815Z,83.60
2022-10-14T02:47:56.401Z,85.45
2022-10-14T02:50:23.393Z,80.07
2022-10-14T02:52:49.941Z,88.22
2022-10-14T02:55:16.580Z,80.63
2022-10-14T02:57:43.192Z,79.18
2022-10-14T03:00:10.730Z,85.70
2022-10-14T03:02:37.301Z,85.55
2022-10-14T03:05:04.416Z,79.93
2022-10-14T03:07:31.111Z,79.32
2022-10-14T03:09:58.463Z,83.63
2022-10-14T03:12:25.691Z,84.53
2022-10-14T03:14:52.352Z,82.80
2022-10-14T03:17:18.953Z,77.20
2022-10-14T03:19:45.659Z,77.85
2022-10-14T03:22:12.662Z,74.78
2022-10-14T03:24:39.248Z,75.18
2022-10-14T03:27:05.827Z,85.50
2022-10-14T03:29:32.389Z,80.32
2022-10-14T03:31:58.958Z,75.50
2022-10-14T03:34:25.565Z,83.43
2022-10-14T03:36:52.101Z,78.95
2022-10-14T03:39:18.769Z,79.15
2022-10-14T03:41:45.374Z,71.80
2022-10-14T03:44:12.023Z,70.88
2022-10-14T03:46:38.796Z,66.88
2022-10-14T03:49:05.432Z,82.65
2022-10-14T03:51:32.002Z,80.22
2022-10-14T03:53:58.586Z,81.07
2022-10-14T03:56:25.144Z,78.30
2022-10-14T03:58:51.918Z,79.10
2022-10-14T04:01:18.500Z,82.60
2022-10-14T04:03:46.771Z,77.57
2022-10-14T04:06:14.722Z,75.40
2022-10-14T04:08:41.493Z,80.03
2022-10-14T04:11:08.444Z,79.78
2022-10-14T04:13:36.733Z,85.22
2022-10-14T04:16:08.111Z,83.45
2022-10-14T04:18:36.275Z,85.85
2022-10-14T04:21:05.157Z,82.38
2022-10-14T04:23:34.545Z,87.65
2022-10-14T04:26:05.866Z,89.68
2022-10-14T04:28:33.506Z,101.28
2022-10-14T04:31:00.666Z,79.97
2022-10-14T04:33:27.852Z,97.38
2022-10-14T04:36:02.549Z,89.88
2022-10-14T04:38:29.577Z,94.28
2022-10-14T04:40:56.745Z,95.70
2022-10-14T04:43:23.443Z,94.10
2022-10-14T04:45:50.661Z,89.90
2022-10-14T04:48:18.394Z,92.22
2022-10-14T04:50:44.994Z,95.75
2022-10-14T04:53:13.708Z,86.47
2022-10-14T04:55:40.794Z,86.10
2022-10-14T04:58:07.457Z,81.57
2022-10-14T05:00:34.117Z,91.75
2022-10-14T05:03:00.730Z,87.60
2022-10-14T05:05:27.372Z,86.43
2022-10-14T05:07:54.022Z,80.25
2022-10-14T05:10:20.826Z,79.13
2022-10-14T05:12:47.448Z,95.15
2022-10-14T05:15:14.386Z,89.07
2022-10-14T05:17:44.589Z,84.07
2022-10-14T05:20:12.288Z,81.95
2022-10-14T05:22:39.310Z,95.05
2022-10-14T05:25:06.466Z,99.25
2022-10-14T05:27:33.475Z,101.80
2022-10-14T05:30:00.047Z,105.55
2022-10-14T05:32:26.631Z,102.97
2022-10-14T05:34:53.278Z,100.75
2022-10-14T05:37:21.415Z,100.47
2022-10-14T05:39:48.008Z,103.63
2022-10-14T05:42:14.607Z,92.30
2022-10-14T05:44:41.213Z,99.75
2022-10-14T05:47:07.785Z,99.25
2022-10-14T05:49:34.361Z,92.80
2022-10-14T05:52:01.838Z,91.97
2022-10-14T05:54:28.545Z,86.25
2022-10-14T05:56:55.162Z,86.70
2022-10-14T05:59:22.457Z,84.45
2022-10-14T06:01:49.032Z,75.75
2022-10-14T06:04:20.489Z,80.28
2022-10-14T06:06:47.249Z,79.85
2022-10-14T06:09:14.768Z,76.35
2022-10-14T06:11:41.360Z,76.47
2022-10-14T06:14:08.405Z,75.80
2022-10-14T06:16:35.059Z,66.28
2022-10-14T06:19:01.655Z,69.60
2022-10-14T06:21:28.556Z,77.00
2022-10-14T06:23:55.233Z,73.25
2022-10-14T06:26:23.200Z,70.47
2022-10-14T06:28:49.799Z,64.00
2022-10-14T06:31:16.592Z,69.20
2022-10-14T06:33:44.214Z,79.32
2022-10-14T06:36:11.994Z,72.63
2022-10-14T06:38:38.719Z,70.35
2022-10-14T06:41:05.404Z,69.07
2022-10-14T06:43:32.138Z,69.90
2022-10-14T06:45:58.935Z,60.83
2022-10-14T06:48:25.745Z,72.57
2022-10-14T06:50:52.698Z,64.93
2022-10-14T06:53:19.373Z,64.95
2022-10-14T06:55:46.500Z,67.18
2022-10-14T06:58:13.293Z,65.78
2022-10-14T07:00:42.214Z,65.22
2022-10-14T07:03:12.282Z,61.70
2022-10-14T07:05:38.865Z,59.00
2022-10-14T07:08:05.744Z,60.25
2022-10-14T07:10:32.738Z,59.25
2022-10-14T07:12:59.302Z,59.25
2022-10-14T07:15:25.882Z,63.30
2022-10-14T07:17:52.488Z,47.83
2022-10-14T07:20:19.150Z,52.58
2022-10-14T07:22:45.804Z,52.78
2022-10-14T07:25:12.841Z,45.72
2022-10-14T07:27:39.453Z,58.83
2022-10-14T07:30:06.643Z,52.70
2022-10-14T07:32:37.091Z,42.97
2022-10-14T07:35:04.164Z,44.75
2022-10-14T07:37:30.871Z,38.80
2022-10-14T07:39:57.499Z,40.72
2022-10-14T07:42:24.056Z,36.33
2022-10-14T07:44:50.789Z,34.35
2022-10-14T07:47:17.358Z,32.72
2022-10-14T07:49:43.930Z,37.42
2022-10-14T07:52:10.619Z,30.92
2022-10-14T07:54:37.257Z,30.58
2022-10-14T07:57:04.278Z,36.30
2022-10-14T07:59:30.925Z,31.98
2022-10-14T08:01:57.654Z,31.13
2022-10-14T08:04:25.322Z,28.40
2022-10-14T08:06:52.284Z,33.08
2022-10-14T08:09:22.185Z,31.83
2022-10-14T08:11:49.013Z,34.35
2022-10-14T08:14:16.656Z,28.27
2022-10-14T08:16:43.222Z,31.45
2022-10-14T08:19:14.416Z,31.60
2022-10-14T08:21:42.897Z,29.55
2022-10-14T08:24:10.185Z,29.92
2022-10-14T08:26:48.995Z,26.55
2022-10-14T08:29:15.762Z,27.27
2022-10-14T08:31:42.356Z,27.30
2022-10-14T08:34:09.005Z,32.00
2022-10-14T08:36:35.665Z,27.40
2022-10-14T08:39:02.363Z,28.65
2022-10-14T08:42:06.388Z,30.00
2022-10-14T08:44:41.489Z,32.20
2022-10-14T08:47:14.268Z,31.20
2022-10-14T08:49:59.562Z,27.20
2022-10-14T08:52:37.552Z,26.27
2022-10-14T08:55:19.543Z,27.75
2022-10-14T08:58:02.525Z,28.88
2022-10-14T09:00:32.880Z,26.83
2022-10-14T09:03:02.392Z,27.25
2022-10-14T09:05:29.135Z,26.55
2022-10-14T09:07:56.960Z,23.48
2022-10-14T09:10:32.273Z,33.50
2022-10-14T09:13:10.118Z,20.80
2022-10-14T09:15:43.084Z,33.45
2022-10-14T09:18:28.997Z,34.13
2022-10-14T09:20:57.914Z,38.83
2022-10-14T09:23:27.386Z,33.28
2022-10-14T09:26:00.790Z,32.92
2022-10-14T09:28:39.207Z,31.40
2022-10-14T09:31:08.055Z,30.52
2022-10-14T09:33:42.263Z,32.55
2022-10-14T09:36:21.237Z,30.00
2022-10-14T09:38:53.314Z,26.98
2022-10-14T09:41:28.678Z,31.65
2022-10-14T09:44:21.406Z,32.28
2022-10-14T09:46:59.663Z,30.77
2022-10-14T09:49:41.219Z,31.48
2022-10-14T09:52:20.191Z,29.92
2022-10-14T09:54:55.298Z,30.92
2022-10-14T09:57:23.027Z,27.00
2022-10-14T09:59:55.237Z,27.48
2022-10-14T10:02:25.897Z,24.52
2022-10-14T10:04:54.938Z,23.27
2022-10-14T10:07:33.981Z,23.35
2022-10-14T10:10:05.615Z,23.95
2022-10-14T10:12:35.919Z,19.33
2022-10-14T10:15:06.105Z,23.17
2022-10-14T10:17:36.142Z,24.42
2022-10-14T10:20:14.975Z,21.73
2022-10-14T10:22:41.948Z,25.85
2022-10-14T10:25:08.425Z,22.10
2022-10-14T10:27:38.686Z,15.20
2022-10-14T10:30:17.527Z,17.85
2022-10-14T10:32:54.973Z,19.52
2022-10-14T10:35:33.318Z,20.40
2022-10-14T10:38:20.798Z,21.77
2022-10-14T10:41:18.669Z,19.92
2022-10-14T10:43:54.241Z,24.15
2022-10-14T10:46:45.848Z,21.02
2022-10-14T10:49:20.495Z,20.40
2022-10-14T10:51:56.809Z,21.70
2022-10-14T10:54:38.645Z,14.02
2022-10-14T10:57:30.433Z,19.38
2022-10-14T11:00:03.777Z,18.48
2022-10-14T11:03:20.970Z,17.98
2022-10-14T11:05:54.361Z,19.40
2022-10-14T11:08:57.024Z,21.67
2022-10-14T11:11:49.593Z,19.90
2022-10-14T11:14:23.481Z,21.98
2022-10-14T11:17:05.516Z,19.55
2022-10-14T11:19:50.147Z,18.25
2022-10-14T11:22:30.938Z,19.02
2022-10-14T11:25:26.198Z,21.70
2022-10-14T11:28:10.288Z,21.48
2022-10-14T11:30:47.672Z,19.95
2022-10-14T11:33:53.175Z,10.75
2022-10-14T11:36:44.788Z,20.38
2022-10-14T11:39:46.944Z,14.43
2022-10-14T11:42:48.326Z,20.73
2022-10-14T11:45:36.148Z,17.73
2022-10-14T11:48:25.894Z,17.30
2022-10-14T11:51:02.775Z,20.23
2022-10-14T11:53:45.388Z,16.52
2022-10-14T11:56:40.915Z,20.45
2022-10-14T11:59:40.184Z,12.93
2022-10-14T12:02:36.018Z,17.90
2022-10-14T12:05:08.562Z,21.15
2022-10-14T12:07:41.967Z,15.88
2022-10-14T12:10:38.461Z,18.92
2022-10-14T12:13:13.758Z,23.42
2022-10-14T12:15:45.224Z,21.98
2022-10-14T12:18:12.419Z,21.45
2022-10-14T12:20:49.806Z,22.10
2022-10-14T12:23:41.362Z,24.05
2022-10-14T12:26:27.857Z,18.35
2022-10-14T12:28:55.443Z,21.52
2022-10-14T12:31:34.170Z,19.08
2022-10-14T12:34:15.957Z,16.00
2022-10-14T12:36:45.144Z,22.02
2022-10-14T12:39:17.842Z,28.15
2022-10-14T12:42:14.954Z,20.80
2022-10-14T12:44:49.316Z,20.33
2022-10-14T12:47:22.905Z,25.02
2022-10-14T12:49:53.378Z,16.58
2022-10-14T12:52:25.004Z,20.95
2022-10-14T12:57:38.842Z,21.33
2022-10-14T13:00:15.100Z,26.02
2022-10-14T13:02:46.299Z,21.67
2022-10-14T13:05:24.871Z,21.20
2022-10-14T13:08:20.709Z,21.58
2022-10-14T13:11:13.468Z,19.53
2022-10-14T13:13:47.932Z,23.83
2022-10-14T13:16:23.562Z,20.27
2022-10-14T13:18:55.011Z,20.90
2022-10-14T13:21:36.768Z,18.88
2022-10-14T13:24:20.911Z,16.20
2022-10-14T13:26:47.572Z,19.67
2022-10-14T13:29:21.516Z,18.35
2022-10-14T13:32:27.261Z,17.77
2022-10-14T13:35:00.884Z,16.40
2022-10-14T13:37:33.163Z,16.40
2022-10-14T13:40:27.355Z,13.80
2022-10-14T13:42:57.793Z,11.00
2022-10-14T13:45:41.320Z,10.90
2022-10-14T13:48:30.903Z,12.40
2022-10-14T13:51:17.507Z,12.30
2022-10-14T13:54:09.422Z,15.17
2022-10-14T13:56:36.309Z,13.98
2022-10-14T13:59:07.979Z,13.73
2022-10-14T14:01:43.729Z,13.88
2022-10-14T14:04:22.705Z,13.77
2022-10-14T14:07:03.377Z,13.32
2022-10-14T14:09:38.377Z,15.98
2022-10-14T14:12:05.576Z,13.50
2022-10-14T14:14:41.709Z,15.23
2022-10-14T14:17:17.020Z,17.00
2022-10-14T14:19:48.553Z,17.05
2022-10-14T14:22:31.695Z,13.27
2022-10-14T14:25:33.418Z,12.90
2022-10-14T14:28:02.806Z,11.90
2022-10-14T14:30:33.798Z,15.90
2022-10-14T14:33:08.206Z,16.00
2022-10-14T14:35:34.812Z,13.07
2022-10-14T14:38:01.750Z,18.48
2022-10-14T14:40:30.928Z,14.45
2022-10-14T14:43:03.153Z,16.38
2022-10-14T14:45:41.415Z,11.00
2022-10-14T14:48:11.791Z,12.27
2022-10-14T14:50:43.046Z,13.13
2022-10-14T14:53:24.184Z,14.05
2022-10-14T14:55:54.052Z,11.85
2022-10-14T14:58:20.786Z,12.30
2022-10-14T15:00:50.077Z,14.63
2022-10-14T15:03:16.793Z,12.43
2022-10-14T15:05:51.429Z,11.95
2022-10-14T15:08:24.652Z,11.70
2022-10-14T15:10:53.258Z,11.25
2022-10-14T15:13:38.105Z,11.73
2022-10-14T15:16:05.930Z,14.77
2022-10-14T15:18:32.971Z,14.93
2022-10-14T15:21:07.326Z,17.42
2022-10-14T15:23:56.151Z,12.27
2022-10-14T15:26:28.482Z,13.02
2022-10-14T15:29:10.397Z,11.73
2022-10-14T15:31:38.999Z,13.55
2022-10-14T15:34:11.329Z,10.77
2022-10-14T15:36:37.944Z,12.77
2022-10-14T15:39:04.604Z,11.65
2022-10-14T15:41:31.211Z,12.35
2022-10-14T15:43:57.795Z,14.00
2022-10-14T15:46:43.212Z,13.82
2022-10-14T15:49:20.470Z,15.75
2022-10-14T15:51:47.033Z,19.55
2022-10-14T15:54:16.410Z,17.85
2022-10-14T15:56:43.021Z,17.27
2022-10-14T15:59:10.159Z,14.63
2022-10-14T16:01:38.347Z,17.17
2022-10-14T16:04:06.537Z,15.20
2022-10-14T16:06:33.143Z,18.10
2022-10-14T16:08:59.757Z,13.80
2022-10-14T16:11:28.554Z,14.23
2022-10-14T16:13:55.195Z,15.57
2022-10-14T16:16:44.352Z,15.15
2022-10-14T16:19:12.050Z,18.58
2022-10-14T16:21:40.412Z,16.70
2022-10-14T16:24:07.897Z,17.38
2022-10-14T16:26:34.569Z,17.20
2022-10-14T16:29:03.395Z,19.70
2022-10-14T16:31:30.147Z,13.75
2022-10-14T16:33:56.705Z,17.45
2022-10-14T16:36:24.947Z,21.67
2022-10-14T16:38:52.085Z,18.50
2022-10-14T16:41:18.697Z,18.40
2022-10-14T16:43:45.462Z,31.27
2022-10-14T16:46:15.411Z,47.55
2022-10-14T16:48:42.526Z,33.38
2022-10-14T16:51:09.266Z,27.08
2022-10-14T16:53:42.177Z,24.38
2022-10-14T16:56:36.067Z,23.45
2022-10-14T16:59:03.852Z,23.77
2022-10-14T17:01:30.987Z,22.70
2022-10-14T17:03:58.018Z,21.48
2022-10-14T17:06:26.060Z,19.27
2022-10-14T17:08:53.299Z,19.40
2022-10-14T17:11:20.460Z,17.95
2022-10-14T17:13:49.538Z,21.85
2022-10-14T17:16:16.080Z,20.40
2022-10-14T17:18:42.775Z,19.65
2022-10-14T17:21:12.185Z,17.95
2022-10-14T17:23:42.197Z,15.48
2022-10-14T17:26:12.111Z,18.80
2022-10-14T17:28:39.198Z,17.00
2022-10-14T17:31:10.492Z,21.15
2022-10-14T17:33:38.361Z,18.00
2022-10-14T17:36:06.554Z,20.80
2022-10-14T17:38:34.845Z,19.05
2022-10-14T17:41:04.213Z,16.83
2022-10-14T17:43:30.930Z,20.30
2022-10-14T17:46:10.379Z,22.77
2022-10-14T17:48:38.018Z,17.75
2022-10-14T17:51:05.278Z,19.75
2022-10-14T17:53:31.855Z,18.70
2022-10-14T17:56:06.173Z,17.88
2022-10-14T17:58:33.876Z,19.25
2022-10-14T18:01:31.688Z,19.58
2022-10-14T18:04:04.311Z,15.73
2022-10-14T18:06:33.521Z,16.10
2022-10-14T18:09:02.783Z,16.88
2022-10-14T18:11:56.164Z,17.17
2022-10-14T18:14:19.371Z,18.17
2022-10-14T18:16:48.728Z,16.08
2022-10-14T18:19:17.214Z,21.63
2022-10-14T18:21:44.577Z,22.58
2022-10-14T18:24:12.302Z,22.45
2022-10-14T18:26:42.267Z,24.45
2022-10-14T18:29:09.293Z,19.10
2022-10-14T18:31:37.202Z,20.77
2022-10-14T18:34:03.873Z,21.25
2022-10-14T18:36:33.232Z,22.02
2022-10-14T18:39:02.455Z,20.42
2022-10-14T18:41:30.341Z,21.40
2022-10-14T18:44:00.355Z,19.10
2022-10-14T18:46:33.075Z,22.05
2022-10-14T18:49:01.340Z,25.90
2022-10-14T18:51:31.594Z,22.83
2022-10-14T18:54:00.533Z,26.52
2022-10-14T18:56:30.102Z,21.75
2022-10-14T18:58:59.419Z,26.35
2022-10-14T19:01:26.556Z,25.65
2022-10-14T19:03:54.245Z,21.90
2022-10-14T19:06:22.408Z,25.20
2022-10-14T19:08:50.087Z,25.52
2022-10-14T19:11:21.381Z,23.80
2022-10-14T19:13:50.227Z,24.65
2022-10-14T19:16:19.486Z,21.88
2022-10-14T19:18:47.996Z,20.40
2022-10-14T19:21:16.296Z,27.75
2022-10-14T19:23:43.907Z,24.98
2022-10-14T19:29:07.736Z,30.90
2022-10-14T19:31:37.940Z,25.40
2022-10-14T19:34:07.913Z,28.88
2022-10-14T19:36:36.998Z,27.23
2022-10-14T19:39:05.619Z,26.77
2022-10-14T19:41:38.495Z,27.40
2022-10-14T19:44:05.420Z,33.05
2022-10-14T19:46:32.034Z,29.85
2022-10-14T19:49:02.420Z,34.72
2022-10-14T19:51:29.470Z,29.77
2022-10-14T19:53:59.578Z,31.38
2022-10-14T19:56:28.545Z,36.28
2022-10-14T19:58:57.152Z,34.83
2022-10-14T20:01:26.773Z,31.05
2022-10-14T20:03:54.311Z,33.72
2022-10-14T20:06:21.984Z,29.75
2022-10-14T20:08:49.060Z,29.98
2022-10-14T20:11:18.687Z,35.60
2022-10-14T20:13:46.202Z,34.13
2022-10-14T20:16:13.700Z,34.58
2022-10-14T20:18:40.707Z,34.60
2022-10-14T20:21:08.431Z,34.40
2022-10-14T20:23:36.748Z,35.72
2022-10-14T20:26:06.310Z,33.30
2022-10-14T20:28:36.149Z,29.85
2022-10-14T20:31:05.739Z,29.60
2022-10-14T20:33:32.311Z,33.50
2022-10-14T20:36:04.067Z,29.95
2022-10-14T20:38:31.082Z,25.83
2022-10-14T20:41:17.963Z,30.52
2022-10-14T20:43:45.935Z,29.48
2022-10-14T20:46:13.222Z,29.58
2022-10-14T20:48:40.065Z,26.77
2022-10-14T20:51:08.534Z,34.55
2022-10-14T20:53:35.312Z,25.58
2022-10-14T20:56:06.785Z,31.23
2022-10-14T20:58:34.085Z,29.38
2022-10-14T21:01:15.284Z,30.50
2022-10-14T21:03:44.211Z,39.33
2022-10-14T21:06:22.212Z,30.25
2022-10-14T21:08:50.253Z,23.17
2022-10-14T21:11:19.397Z,29.67
2022-10-14T21:13:49.715Z,30.17
2022-10-14T21:16:34.607Z,27.38
2022-10-14T21:19:07.045Z,34.80
2022-10-14T21:21:39.770Z,28.42
2022-10-14T21:24:07.811Z,24.65
2022-10-14T21:26:34.913Z,27.70
2022-10-14T21:29:02.733Z,31.85
2022-10-14T21:31:30.259Z,29.90
2022-10-14T21:34:05.066Z,24.33
2022-10-14T21:36:34.750Z,26.90
2022-10-14T21:39:05.711Z,31.92
2022-10-14T21:41:32.683Z,34.83
2022-10-14T21:43:59.600Z,32.00
2022-10-14T21:46:27.159Z,31.38
2022-10-14T21:48:57.159Z,30.85
2022-10-14T21:51:25.663Z,26.42
2022-10-14T21:53:52.451Z,14.90
2022-10-14T21:56:22.746Z,30.90
2022-10-14T21:58:49.561Z,16.45
2022-10-14T22:01:21.726Z,17.25
2022-10-14T22:03:54.124Z,19.25
2022-10-14T22:06:22.392Z,25.15
2022-10-14T22:08:52.316Z,32.35
2022-10-14T22:11:34.129Z,26.20
2022-10-14T22:14:03.364Z,28.45
2022-10-14T22:16:32.868Z,29.38
2022-10-14T22:19:01.943Z,26.35
2022-10-14T22:21:32.413Z,30.88
2022-10-14T22:23:59.322Z,31.48
2022-10-14T22:26:27.284Z,30.00
2022-10-14T22:29:01.667Z,30.80
2022-10-14T22:31:29.487Z,34.72
2022-10-14T22:33:56.210Z,28.55
2022-10-14T22:36:25.706Z,37.40
2022-10-14T22:38:53.970Z,34.78
2022-10-14T22:41:23.401Z,34.47
2022-10-14T22:43:53.456Z,34.45
2022-10-14T22:46:22.293Z,33.83
2022-10-14T22:48:49.964Z,36.13
2022-10-14T22:51:18.619Z,24.83
2022-10-14T22:53:46.739Z,40.15
2022-10-14T22:56:16.592Z,31.15
2022-10-14T22:58:43.250Z,33.08
2022-10-14T23:01:12.533Z,33.03
2022-10-14T23:03:40.009Z,34.10
2022-10-14T23:06:08.749Z,32.25
2022-10-14T23:08:36.084Z,33.92
2022-10-14T23:11:04.238Z,36.35
2022-10-14T23:13:31.102Z,34.83
2022-10-14T23:16:02.689Z,35.42
2022-10-14T23:18:31.688Z,35.75
2022-10-14T23:20:58.634Z,32.67
2022-10-14T23:23:25.267Z,37.70
2022-10-14T23:25:51.850Z,37.20
2022-10-14T23:28:18.503Z,32.63
2022-10-14T23:30:45.083Z,39.03
2022-10-14T23:33:12.676Z,35.25
2022-10-14T23:35:39.299Z,38.45
2022-10-14T23:38:05.983Z,41.03
2022-10-14T23:40:33.209Z,40.67
2022-10-14T23:43:00.986Z,38.38
2022-10-14T23:45:27.597Z,40.50
2022-10-14T23:47:54.197Z,35.95
2022-10-14T23:50:20.896Z,36.28
2022-10-14T23:52:47.499Z,44.22
2022-10-14T23:55:15.817Z,38.10
